Time;durP1;ratioP1;P1;durP2;ratioP2;P2;SDS_P1;SDS_P2;PMS_P1;PMS_P2;Temp;Humidity;BMP_temperature;BMP_pressure;BME280_temperature;BME280_humidity;BME280_pressure;Samples;Min_cycle;Max_cycle;Signal;HPM_P1;HPM_P2
2023/03/12 00:00:48;;;;;;;;;;;;;;;-1.33;100.00;160229.63;5049068;28;19967;-59
2023/03/12 00:03:13;;;;;;;;;;;;;;;-1.31;100.00;160235.00;5050866;28;19908;-59
2023/03/12 00:05:39;;;;;;;;;;;;;;;-1.26;100.00;160245.69;5049367;28;19920;-59
2023/03/12 00:08:05;;;;;;;;;;;;;;;-1.26;100.00;160247.00;5050914;28;19908;-59
2023/03/12 00:10:30;;;;;;;;;;;;;;;-1.21;100.00;160260.41;5049264;28;19979;-60
2023/03/12 00:12:55;;;;;;;;;;;;;;;-1.24;100.00;160251.03;5050363;28;19917;-60
2023/03/12 00:15:20;;;;;;;;;;;;;;;-1.24;100.00;160252.38;5049150;28;20325;-60
2023/03/12 00:17:46;;;;;;;;;;;;;;;-1.23;100.00;160255.03;5050556;28;19905;-60
2023/03/12 00:20:11;;;;;;;;;;;;;;;-1.25;100.00;160248.38;5049481;28;19912;-59
2023/03/12 00:22:37;;;;;;;;;;;;;;;-1.33;100.00;160229.63;5050345;28;20035;-60
2023/03/12 00:25:02;;;;;;;;;;;;;;;-1.33;100.00;160229.63;5050679;28;19970;-59
2023/03/12 00:27:28;;;;;;;;;;;;;;;-1.32;100.00;160232.31;5049357;28;19962;-59
2023/03/12 00:29:53;;;;;;;;;;;;;;;-1.37;100.00;160218.88;5048403;28;19919;-59
2023/03/12 00:32:18;;;;;;;;;;;;;;;-1.42;100.00;160204.19;5050685;28;19923;-59
2023/03/12 00:34:49;;;;;;;;;;;;;;;-1.48;100.00;160190.78;5049155;28;20318;-59
2023/03/12 00:37:14;;;;;;;;;;;;;;;-1.50;100.00;160184.09;5050395;28;20503;-59
2023/03/12 00:39:39;;;;;;;;;;;;;;;-1.55;100.00;160170.72;5051224;28;19958;-58
2023/03/12 00:42:04;;;;;;;;;;;;;;;-1.60;100.00;160159.97;5049013;28;19923;-59
2023/03/12 00:44:29;;;;;;;;;;;;;;;-1.52;100.00;160178.72;5052493;28;20654;-59
2023/03/12 00:46:54;;;;;;;;;;;;;;;-1.47;100.00;160193.47;5053929;28;19924;-59
2023/03/12 00:49:20;;;;;;;;;;;;;;;-1.38;100.00;160216.25;5053905;28;19947;-59
2023/03/12 00:51:45;;;;;;;;;;;;;;;-1.31;100.00;160235.00;5051694;28;19931;-59
2023/03/12 00:54:10;;;;;;;;;;;;;;;-1.30;100.00;160237.63;5054312;28;19959;-59
2023/03/12 00:56:35;;;;;;;;;;;;;;;-1.23;100.00;160255.03;5052323;28;19923;-59
2023/03/12 00:59:00;;;;;;;;;;;;;;;-1.21;100.00;160259.06;5053656;28;20378;-59
2023/03/12 01:01:26;;;;;;;;;;;;;;;-1.17;100.00;160269.78;5052565;28;19919;-59
2023/03/12 01:03:51;;;;;;;;;;;;;;;-1.12;100.00;160283.16;5053834;28;19916;-59
2023/03/12 01:06:17;;;;;;;;;;;;;;;-1.08;100.00;160293.84;5052119;28;19959;-59
2023/03/12 01:08:42;;;;;;;;;;;;;;;-1.02;100.00;160309.97;5053391;28;19909;-59
2023/03/12 01:11:11;;;;;;;;;;;;;;;-1.02;100.00;160309.97;5052150;28;19963;-58
2023/03/12 01:13:36;;;;;;;;;;;;;;;-1.00;100.00;160315.28;5053340;28;19912;-59
2023/03/12 01:16:01;;;;;;;;;;;;;;;-0.96;100.00;160326.03;5051818;28;19920;-58
2023/03/12 01:18:26;;;;;;;;;;;;;;;-0.90;100.00;160340.75;5053509;28;20405;-58
2023/03/12 01:20:52;;;;;;;;;;;;;;;-0.87;100.00;160347.47;5051787;28;19919;-58
2023/03/12 01:23:17;;;;;;;;;;;;;;;-0.83;100.00;160358.16;5053122;28;19909;-58
2023/03/12 01:25:42;;;;;;;;;;;;;;;-0.80;100.00;160366.22;5051777;28;19923;-59
2023/03/12 01:28:07;;;;;;;;;;;;;;;-0.74;100.00;160380.91;5053366;28;19949;-58
2023/03/12 01:30:32;;;;;;;;;;;;;;;-0.71;100.00;160390.28;5051367;28;19920;-59
2023/03/12 01:32:57;;;;;;;;;;;;;;;-0.67;100.00;160401.03;5053180;28;19919;-60
2023/03/12 01:35:23;;;;;;;;;;;;;;;-0.63;100.00;160409.06;5051850;28;20367;-59
2023/03/12 01:37:48;;;;;;;;;;;;;;;-0.62;100.00;160411.72;5052521;28;19909;-59
2023/03/12 01:40:14;;;;;;;;;;;;;;;-0.59;100.00;160421.09;5051720;28;19916;-60
2023/03/12 01:42:40;;;;;;;;;;;;;;;-0.58;100.00;160422.47;5052675;28;20029;-59
2023/03/12 01:45:05;;;;;;;;;;;;;;;-0.60;100.00;160418.44;5051267;28;19955;-59
2023/03/12 01:47:30;;;;;;;;;;;;;;;-0.61;100.00;160414.41;5052969;28;19991;-59
2023/03/12 01:49:56;;;;;;;;;;;;;;;-0.62;100.00;160411.72;5050558;28;19917;-59
2023/03/12 01:52:23;;;;;;;;;;;;;;;-0.61;100.00;160414.41;5052566;28;19917;-59
2023/03/12 01:55:06;;;;;;;;;;;;;;;-0.61;100.00;160414.41;5051263;28;19999;-59
2023/03/12 01:57:51;;;;;;;;;;;;;;;-0.60;100.00;160417.09;5052428;28;20339;-58
2023/03/12 02:00:18;;;;;;;;;;;;;;;-0.57;100.00;160426.47;5050861;28;19924;-59
2023/03/12 02:02:45;;;;;;;;;;;;;;;-0.52;100.00;160438.53;5052909;28;19908;-59
2023/03/12 02:05:14;;;;;;;;;;;;;;;-0.42;100.00;160463.97;5051412;28;20038;-59
2023/03/12 02:07:40;;;;;;;;;;;;;;;-0.42;100.00;160463.97;5051764;28;19944;-59
2023/03/12 02:10:05;;;;;;;;;;;;;;;-0.40;100.00;160470.66;5051060;28;20027;-59
2023/03/12 02:12:30;;;;;;;;;;;;;;;-0.40;100.00;160470.66;5052565;28;19962;-59
2023/03/12 02:14:55;;;;;;;;;;;;;;;-0.41;100.00;160467.97;5050482;28;19944;-58
2023/03/12 02:17:21;;;;;;;;;;;;;;;-0.37;100.00;160478.72;5052025;28;20368;-58
2023/03/12 02:20:09;;;;;;;;;;;;;;;-0.29;100.00;160497.47;5050454;28;20422;-59
2023/03/12 02:22:35;;;;;;;;;;;;;;;-0.32;100.00;160492.09;5051807;28;19913;-59
2023/03/12 02:25:19;;;;;;;;;;;;;;;-0.30;100.00;160494.78;5050878;28;20291;-59
2023/03/12 02:27:44;;;;;;;;;;;;;;;-0.32;100.00;160490.78;5051676;28;19916;-59
2023/03/12 02:30:14;;;;;;;;;;;;;;;-0.30;100.00;160494.78;5050573;28;19913;-59
2023/03/12 02:32:40;;;;;;;;;;;;;;;-0.30;100.00;160494.78;5051885;28;19913;-59
2023/03/12 02:35:05;;;;;;;;;;;;;;;-0.26;100.00;160505.53;5050697;28;19916;-59
2023/03/12 02:37:31;;;;;;;;;;;;;;;-0.18;100.00;160526.91;5051575;28;19912;-59
2023/03/12 02:40:01;;;;;;;;;;;;;;;-0.13;100.00;160540.34;5050394;28;20400;-59
2023/03/12 02:42:26;;;;;;;;;;;;;;;-0.13;100.00;160539.00;5046742;28;19924;-59
2023/03/12 02:44:52;;;;;;;;;;;;;;;-0.14;100.00;160537.66;5049799;28;19966;-59
2023/03/12 02:47:17;;;;;;;;;;;;;;;-0.15;100.00;160534.97;5051713;28;19913;-59
2023/03/12 02:49:42;;;;;;;;;;;;;;;-0.11;100.00;160545.69;5050225;28;19923;-59
2023/03/12 02:52:08;;;;;;;;;;;;;;;-0.09;100.00;160549.72;5051406;28;19920;-59
2023/03/12 02:54:33;;;;;;;;;;;;;;;-0.10;100.00;160548.38;5050616;28;19908;-59
2023/03/12 02:56:59;;;;;;;;;;;;;;;-0.10;100.00;160547.03;5051771;28;19905;-59
2023/03/12 02:59:25;;;;;;;;;;;;;;;-0.13;100.00;160540.34;5050260;28;20459;-58
2023/03/12 03:01:51;;;;;;;;;;;;;;;-0.06;100.00;160559.13;5051364;28;20280;-59
2023/03/12 03:04:16;;;;;;;;;;;;;;;-0.10;100.00;160547.03;5051643;28;19917;-58
2023/03/12 03:06:42;;;;;;;;;;;;;;;-0.08;100.00;160552.41;5049351;28;19919;-59
2023/03/12 03:09:07;;;;;;;;;;;;;;;-0.09;100.00;160551.06;5051270;28;19924;-59
2023/03/12 03:11:33;;;;;;;;;;;;;;;-0.04;100.00;160563.13;5049685;28;19917;-59
2023/03/12 03:13:58;;;;;;;;;;;;;;;0.02;100.00;160577.88;5050956;28;19919;-59
2023/03/12 03:16:23;;;;;;;;;;;;;;;0.06;100.00;160588.56;5049748;28;19958;-59
2023/03/12 03:18:49;;;;;;;;;;;;;;;0.08;100.00;160593.94;5051660;28;20386;-59
2023/03/12 03:21:15;;;;;;;;;;;;;;;0.15;100.00;160612.72;5049575;28;19919;-59
2023/03/12 03:23:49;;;;;;;;;;;;;;;0.08;100.00;160593.94;5051343;28;19912;-59
2023/03/12 03:26:15;;;;;;;;;;;;;;;0.08;100.00;160595.25;5049910;28;20466;-59
2023/03/12 03:28:41;;;;;;;;;;;;;;;0.13;100.00;160608.69;5050788;28;20009;-59
2023/03/12 03:31:06;;;;;;;;;;;;;;;0.16;100.00;160615.41;5049149;28;19953;-59
2023/03/12 03:33:33;;;;;;;;;;;;;;;0.18;100.00;160620.78;5051366;28;19939;-59
2023/03/12 03:36:00;;;;;;;;;;;;;;;0.19;100.00;160623.41;5049301;28;19913;-59
2023/03/12 03:38:26;;;;;;;;;;;;;;;0.12;100.00;160606.00;5051583;28;19915;-59
2023/03/12 03:40:52;;;;;;;;;;;;;;;0.18;100.00;160620.78;5049615;28;19916;-60
2023/03/12 03:43:17;;;;;;;;;;;;;;;0.15;100.00;160612.72;5050886;28;19917;-59
2023/03/12 03:45:43;;;;;;;;;;;;;;;0.18;100.00;160620.78;5049274;28;19944;-59
2023/03/12 03:48:09;;;;;;;;;;;;;;;0.18;100.00;160620.78;5051480;28;19909;-59
2023/03/12 03:50:35;;;;;;;;;;;;;;;0.18;100.00;160619.41;5049307;28;19913;-59
2023/03/12 03:53:00;;;;;;;;;;;;;;;0.20;100.00;160624.78;5051275;28;20398;-59
2023/03/12 03:55:26;;;;;;;;;;;;;;;0.21;100.00;160628.78;5049643;28;19919;-59
2023/03/12 03:57:51;;;;;;;;;;;;;;;0.28;100.00;160646.22;5050168;28;20006;-59
2023/03/12 04:00:17;;;;;;;;;;;;;;;0.24;100.00;160635.47;5049860;28;20337;-59
2023/03/12 04:02:42;;;;;;;;;;;;;;;0.22;100.00;160631.47;5051106;28;19909;-59
2023/03/12 04:05:08;;;;;;;;;;;;;;;0.22;100.00;160631.47;5049205;28;19921;-59
2023/03/12 04:07:33;;;;;;;;;;;;;;;0.28;100.00;160646.22;5050997;28;19908;-59
2023/03/12 04:09:58;;;;;;;;;;;;;;;0.26;100.00;160642.16;5049217;28;19913;-58
2023/03/12 04:12:24;;;;;;;;;;;;;;;0.31;100.00;160655.59;5050328;28;20003;-59
2023/03/12 04:14:50;;;;;;;;;;;;;;;0.41;100.00;160679.75;5052169;28;20300;-59
2023/03/12 04:17:15;;;;;;;;;;;;;;;0.47;100.00;160695.81;5054808;28;19919;-58
2023/03/12 04:19:40;;;;;;;;;;;;;;;0.47;100.00;160695.81;5052599;28;20271;-60
2023/03/12 04:22:06;;;;;;;;;;;;;;;0.44;100.00;160689.13;5054834;28;19944;-59
2023/03/12 04:24:31;;;;;;;;;;;;;;;0.51;100.00;160706.53;5053433;28;20306;-59
2023/03/12 04:26:56;;;;;;;;;;;;;;;0.53;100.00;160711.91;5053616;28;19956;-59
2023/03/12 04:29:21;;;;;;;;;;;;;;;0.56;100.00;160719.91;5054727;28;19909;-59
2023/03/12 04:31:47;;;;;;;;;;;;;;;0.55;100.00;160717.28;5052680;28;19921;-59
2023/03/12 04:34:12;;;;;;;;;;;;;;;0.50;100.00;160703.84;5054165;28;19909;-59
2023/03/12 04:36:37;;;;;;;;;;;;;;;0.50;100.00;160703.84;5052717;28;19920;-60
2023/03/12 04:39:06;;;;;;;;;;;;;;;0.53;100.00;160711.91;5054240;28;20442;-61
2023/03/12 04:41:31;;;;;;;;;;;;;;;0.55;100.00;160717.28;5052450;28;19928;-60
2023/03/12 04:43:56;;;;;;;;;;;;;;;0.55;100.00;160717.28;5053979;28;19908;-60
2023/03/12 04:46:21;;;;;;;;;;;;;;;0.58;100.00;160725.28;5052936;28;20360;-60
2023/03/12 04:48:47;;;;;;;;;;;;;;;0.58;100.00;160725.28;5053688;28;19909;-60
2023/03/12 04:51:12;;;;;;;;;;;;;;;0.55;100.00;160717.28;5052394;28;19920;-60
2023/03/12 04:53:39;;;;;;;;;;;;;;;0.56;100.00;160719.91;5053630;28;20386;-60
2023/03/12 04:56:04;;;;;;;;;;;;;;;0.55;100.00;160715.91;5052272;28;19917;-60
2023/03/12 04:58:29;;;;;;;;;;;;;;;0.61;100.00;160732.00;5053987;28;19962;-60
2023/03/12 05:00:54;;;;;;;;;;;;;;;0.56;100.00;160719.91;5052333;28;19986;-60
2023/03/12 05:03:20;;;;;;;;;;;;;;;0.45;100.00;160691.75;5053343;28;20374;-60
2023/03/12 05:05:45;;;;;;;;;;;;;;;0.51;100.00;160706.53;5052220;28;20288;-60
2023/03/12 05:08:10;;;;;;;;;;;;;;;0.41;100.00;160679.75;5053439;28;19948;-60
2023/03/12 05:10:35;;;;;;;;;;;;;;;0.34;100.00;160662.31;5051686;28;19920;-60
2023/03/12 05:13:00;;;;;;;;;;;;;;;0.35;100.00;160665.00;5053549;28;19958;-60
2023/03/12 05:15:26;;;;;;;;;;;;;;;0.35;100.00;160663.63;5052435;28;19999;-60
2023/03/12 05:17:52;;;;;;;;;;;;;;;0.28;100.00;160647.53;5053235;28;20406;-60
2023/03/12 05:20:17;;;;;;;;;;;;;;;0.27;100.00;160643.53;5052195;28;19958;-60
2023/03/12 05:22:42;;;;;;;;;;;;;;;0.29;100.00;160650.22;5053464;28;19913;-60
2023/03/12 05:25:08;;;;;;;;;;;;;;;0.30;100.00;160652.91;5053412;28;19908;-60
2023/03/12 05:27:36;;;;;;;;;;;;;;;0.31;100.00;160655.59;5051843;28;19912;-60
2023/03/12 05:30:03;;;;;;;;;;;;;;;0.35;100.00;160663.63;5051903;28;20429;-60
2023/03/12 05:32:28;;;;;;;;;;;;;;;0.38;100.00;160673.00;5053500;28;20007;-60
2023/03/12 05:34:53;;;;;;;;;;;;;;;0.38;100.00;160671.69;5051278;28;20058;-59
2023/03/12 05:37:18;;;;;;;;;;;;;;;0.39;100.00;160674.38;5052813;28;19920;-59
2023/03/12 05:39:45;;;;;;;;;;;;;;;0.44;100.00;160689.13;5051666;28;19913;-59
2023/03/12 05:42:13;;;;;;;;;;;;;;;0.48;100.00;160698.50;5052747;28;20375;-59
2023/03/12 05:44:39;;;;;;;;;;;;;;;0.53;100.00;160711.91;5051722;28;19909;-59
2023/03/12 05:47:04;;;;;;;;;;;;;;;0.57;100.00;160722.59;5052888;28;19919;-59
2023/03/12 05:49:29;;;;;;;;;;;;;;;0.60;100.00;160730.66;5051019;28;19954;-60
2023/03/12 05:51:54;;;;;;;;;;;;;;;0.62;100.00;160736.06;5052455;28;19971;-60
2023/03/12 05:54:20;;;;;;;;;;;;;;;0.66;100.00;160745.44;5053155;28;19909;-60
2023/03/12 05:56:45;;;;;;;;;;;;;;;0.65;100.00;160741.38;5050775;28;19916;-59
2023/03/12 05:59:10;;;;;;;;;;;;;;;0.67;100.00;160746.75;5053247;28;19917;-59
2023/03/12 06:01:36;;;;;;;;;;;;;;;0.65;100.00;160741.38;5050812;28;19920;-58
2023/03/12 06:04:01;;;;;;;;;;;;;;;0.60;100.00;160730.66;5052713;28;19916;-59
2023/03/12 06:06:28;;;;;;;;;;;;;;;0.54;100.00;160714.59;5051020;28;19917;-58
2023/03/12 06:08:53;;;;;;;;;;;;;;;0.56;100.00;160719.91;5052366;28;19912;-58
2023/03/12 06:11:18;;;;;;;;;;;;;;;0.58;100.00;160725.28;5050583;28;20371;-59
2023/03/12 06:13:44;;;;;;;;;;;;;;;0.64;100.00;160740.06;5052310;28;19908;-59
2023/03/12 06:16:17;;;;;;;;;;;;;;;0.73;100.00;160762.84;5051252;28;19912;-59
2023/03/12 06:18:42;;;;;;;;;;;;;;;0.80;100.00;160781.59;5051336;28;20439;-61
2023/03/12 06:21:08;;;;;;;;;;;;;;;0.87;100.00;160799.06;5053423;28;20007;-59
2023/03/12 06:23:34;;;;;;;;;;;;;;;0.91;100.00;160811.13;5052618;28;19915;-59
2023/03/12 06:25:59;;;;;;;;;;;;;;;0.92;100.00;160812.44;5049003;28;19916;-59
2023/03/12 06:28:24;;;;;;;;;;;;;;;0.90;100.00;160808.44;5050230;28;20368;-59
2023/03/12 06:30:51;;;;;;;;;;;;;;;0.92;100.00;160813.81;5050393;28;19913;-58
2023/03/12 06:33:16;;;;;;;;;;;;;;;0.95;100.00;160821.84;5051279;28;19924;-59
2023/03/12 06:35:42;;;;;;;;;;;;;;;0.92;100.00;160813.81;5048834;28;19963;-59
2023/03/12 06:38:07;;;;;;;;;;;;;;;0.89;100.00;160805.75;5051364;28;19909;-60
2023/03/12 06:40:32;;;;;;;;;;;;;;;0.88;100.00;160803.06;5049745;28;19999;-60
2023/03/12 06:42:57;;;;;;;;;;;;;;;0.91;100.00;160811.13;5046038;28;19925;-61
2023/03/12 06:45:22;;;;;;;;;;;;;;;0.98;100.00;160827.22;5047774;28;19917;-60
2023/03/12 06:47:47;;;;;;;;;;;;;;;1.05;100.00;160845.97;5050651;28;19956;-61
2023/03/12 06:50:13;;;;;;;;;;;;;;;1.11;100.00;160862.06;5048841;28;19913;-61
2023/03/12 06:52:39;;;;;;;;;;;;;;;1.13;100.00;160867.44;5050357;28;19987;-61
2023/03/12 06:55:04;;;;;;;;;;;;;;;1.07;100.00;160852.69;5049617;28;19917;-60
2023/03/12 06:57:30;;;;;;;;;;;;;;;1.09;100.00;160856.69;5051501;28;19909;-60
2023/03/12 06:59:55;;;;;;;;;;;;;;;1.19;100.00;160883.53;5048927;28;20346;-61
2023/03/12 07:02:20;;;;;;;;;;;;;;;1.26;100.00;160901.00;5050662;28;20260;-61
2023/03/12 07:04:45;;;;;;;;;;;;;;;1.30;100.00;160910.38;5049578;28;19919;-61
2023/03/12 07:07:10;;;;;;;;;;;;;;;1.36;100.00;160926.47;5035353;28;19913;-60
2023/03/12 07:09:36;;;;;;;;;;;;;;;1.37;100.00;160929.16;5029004;28;19940;-61
2023/03/12 07:12:03;;;;;;;;;;;;;;;1.42;100.00;160942.56;5040835;28;20266;-60
2023/03/12 07:14:28;;;;;;;;;;;;;;;1.37;100.00;160929.16;5048901;28;20286;-60
2023/03/12 07:16:54;;;;;;;;;;;;;;;1.39;100.00;160935.84;5050360;28;19905;-60
2023/03/12 07:19:20;;;;;;;;;;;;;;;1.38;100.00;160931.78;5050989;28;20003;-61
2023/03/12 07:21:45;;;;;;;;;;;;;;;1.34;100.00;160922.41;5048135;28;20008;-60
2023/03/12 07:24:10;;;;;;;;;;;;;;;1.27;100.00;160905.00;5050377;28;20001;-60
2023/03/12 07:26:35;;;;;;;;;;;;;;;1.34;100.00;160921.09;5048622;28;20011;-61
2023/03/12 07:29:01;;;;;;;;;;;;;;;1.30;100.00;160910.38;5049534;28;19936;-60
2023/03/12 07:31:26;;;;;;;;;;;;;;;1.30;100.00;160910.38;5048730;28;19921;-61
2023/03/12 07:33:51;;;;;;;;;;;;;;;1.35;100.00;160923.78;5050273;28;19952;-60
2023/03/12 07:36:16;;;;;;;;;;;;;;;1.35;100.00;160923.78;5048185;28;19916;-60
2023/03/12 07:38:42;;;;;;;;;;;;;;;1.32;100.00;160915.72;5049672;28;19912;-60
2023/03/12 07:41:07;;;;;;;;;;;;;;;1.40;100.00;160937.19;5049135;28;19913;-60
2023/03/12 07:43:32;;;;;;;;;;;;;;;1.49;100.00;160961.34;5049432;28;20303;-60
2023/03/12 07:45:57;;;;;;;;;;;;;;;1.55;100.00;160976.09;5048364;28;19916;-60
2023/03/12 07:48:22;;;;;;;;;;;;;;;1.54;100.00;160974.75;5050389;28;20422;-60
2023/03/12 07:50:48;;;;;;;;;;;;;;;1.58;100.00;160985.50;5049047;28;20000;-59
2023/03/12 07:53:13;;;;;;;;;;;;;;;1.48;100.00;160957.31;5051264;28;19920;-59
2023/03/12 07:55:38;;;;;;;;;;;;;;;1.56;100.00;160980.13;5049278;28;19917;-58
2023/03/12 07:58:03;;;;;;;;;;;;;;;1.55;100.00;160977.44;5053355;28;20355;-59
2023/03/12 08:00:29;;;;;;;;;;;;;;;1.47;100.00;160955.97;5052020;28;19932;-59
2023/03/12 08:02:54;;;;;;;;;;;;;;;1.58;100.00;160984.13;5053603;28;19999;-58
2023/03/12 08:05:23;;;;;;;;;;;;;;;1.51;100.00;160966.72;5051402;28;20058;-59
2023/03/12 08:07:48;;;;;;;;;;;;;;;1.53;100.00;160972.03;5053601;28;20413;-59
2023/03/12 08:10:13;;;;;;;;;;;;;;;1.61;100.00;160992.19;5051570;28;19916;-58
2023/03/12 08:12:39;;;;;;;;;;;;;;;1.67;100.00;161006.97;5062534;28;19971;-59
2023/03/12 08:15:05;;;;;;;;;;;;;;;1.79;100.00;161039.16;5066792;28;19924;-58
2023/03/12 08:17:31;;;;;;;;;;;;;;;1.85;100.00;161055.25;5070885;28;19919;-60
2023/03/12 08:19:56;;;;;;;;;;;;;;;1.89;100.00;161064.66;5061180;28;19920;-58
2023/03/12 08:22:21;;;;;;;;;;;;;;;1.88;100.00;161063.31;5053908;28;19919;-59
2023/03/12 08:24:46;;;;;;;;;;;;;;;1.96;100.00;161083.44;5051979;28;20426;-59
2023/03/12 08:27:11;;;;;;;;;;;;;;;1.95;100.00;161080.75;5049749;28;19916;-59
2023/03/12 08:29:37;;;;;;;;;;;;;;;1.97;100.00;161084.81;5047941;28;19912;-58
2023/03/12 08:32:02;;;;;;;;;;;;;;;1.98;100.00;161087.44;5050361;28;19951;-59
2023/03/12 08:34:27;;;;;;;;;;;;;;;1.95;100.00;161079.41;5047695;28;19958;-57
2023/03/12 08:36:53;;;;;;;;;;;;;;;1.98;100.00;161087.44;5053449;28;19935;-58
2023/03/12 08:39:18;;;;;;;;;;;;;;;1.99;100.00;161090.13;5053366;28;19993;-58
2023/03/12 08:41:43;;;;;;;;;;;;;;;2.03;100.00;161100.91;5050729;28;20503;-58
2023/03/12 08:44:08;;;;;;;;;;;;;;;2.07;100.00;161111.59;5052235;28;19912;-58
2023/03/12 08:46:33;;;;;;;;;;;;;;;2.04;100.00;161103.59;5050626;28;19917;-58
2023/03/12 08:48:59;;;;;;;;;;;;;;;2.16;100.00;161134.47;5050939;28;19916;-58
2023/03/12 08:51:24;;;;;;;;;;;;;;;2.16;100.00;161135.78;5049838;28;20394;-59
2023/03/12 08:53:49;;;;;;;;;;;;;;;2.19;100.00;161143.84;5051552;28;20355;-59
2023/03/12 08:56:14;;;;;;;;;;;;;;;2.20;100.00;161146.50;5049947;28;19955;-58
2023/03/12 08:58:40;;;;;;;;;;;;;;;2.22;100.00;161151.88;5052183;28;20344;-58
2023/03/12 09:01:09;;;;;;;;;;;;;;;2.30;100.00;161170.66;5049951;28;19921;-59
2023/03/12 09:03:34;;;;;;;;;;;;;;;2.25;100.00;161158.59;5051015;28;20283;-59
2023/03/12 09:06:12;;;;;;;;;;;;;;;2.13;100.00;161127.72;5050307;28;19916;-58
2023/03/12 09:08:37;;;;;;;;;;;;;;;2.13;100.00;161127.72;5051222;28;20295;-59
2023/03/12 09:11:03;;;;;;;;;;;;;;;2.11;100.00;161122.38;5049441;28;19920;-58
2023/03/12 09:13:28;;;;;;;;;;;;;;;2.06;100.00;161108.91;5052295;28;19924;-58
2023/03/12 09:15:57;;;;;;;;;;;;;;;2.07;100.00;161111.59;5049805;28;20374;-58
2023/03/12 09:18:22;;;;;;;;;;;;;;;2.04;100.00;161103.59;5050236;28;19913;-58
2023/03/12 09:20:47;;;;;;;;;;;;;;;2.06;100.00;161108.91;5050010;28;19923;-58
2023/03/12 09:23:13;;;;;;;;;;;;;;;2.05;100.00;161107.59;5051277;28;19920;-58
2023/03/12 09:25:38;;;;;;;;;;;;;;;2.06;100.00;161108.91;5049713;28;19951;-58
2023/03/12 09:28:03;;;;;;;;;;;;;;;2.03;100.00;161102.22;5050963;28;20007;-59
2023/03/12 09:30:29;;;;;;;;;;;;;;;2.08;100.00;161112.97;5049170;28;19920;-59
2023/03/12 09:32:54;;;;;;;;;;;;;;;2.13;100.00;161126.38;5051057;28;19916;-59
2023/03/12 09:35:19;;;;;;;;;;;;;;;2.11;100.00;161122.38;5049625;28;19935;-58
2023/03/12 09:37:47;;;;;;;;;;;;;;;2.14;100.00;161129.06;5051282;28;19915;-58
2023/03/12 09:40:22;;;;;;;;;;;;;;;2.16;100.00;161135.78;5050266;28;19999;-58
2023/03/12 09:42:51;;;;;;;;;;;;;;;2.21;100.00;161149.19;5015047;28;1033427;-58
2023/03/12 09:45:21;;;;;;;;;;;;;;;2.25;100.00;161157.25;5051067;28;19955;-59
2023/03/12 09:47:54;;;;;;;;;;;;;;;2.27;100.00;161162.66;5052522;28;19991;-58
2023/03/12 09:50:25;;;;;;;;;;;;;;;2.29;100.00;161167.97;5051201;28;19913;-59
2023/03/12 09:52:54;;;;;;;;;;;;;;;2.35;100.00;161184.06;5052247;28;19955;-58
2023/03/12 09:55:20;;;;;;;;;;;;;;;2.48;100.00;161219.03;5049943;28;20378;-59
2023/03/12 09:57:47;;;;;;;;;;;;;;;2.53;100.00;161231.09;5052497;28;19943;-59
2023/03/12 10:00:32;;;;;;;;;;;;;;;2.60;100.00;161249.91;5050693;28;20630;-59
2023/03/12 10:02:57;;;;;;;;;;;;;;;2.63;100.00;161256.59;5050536;28;20371;-59
2023/03/12 10:05:38;;;;;;;;;;;;;;;2.67;100.00;161267.31;5050862;28;19924;-59
2023/03/12 10:08:09;;;;;;;;;;;;;;;2.73;100.00;161283.44;5051096;28;20407;-59
2023/03/12 10:10:44;;;;;;;;;;;;;;;2.81;100.00;161303.59;5048653;28;19916;-59
2023/03/12 10:13:18;;;;;;;;;;;;;;;2.89;100.00;161325.09;5052084;28;19986;-59
2023/03/12 10:15:46;;;;;;;;;;;;;;;3.06;100.00;161368.03;5049413;28;19924;-59
2023/03/12 10:18:36;;;;;;;;;;;;;;;3.12;100.00;161385.50;5051067;28;19908;-59
2023/03/12 10:21:10;;;;;;;;;;;;;;;3.21;100.00;161407.00;5050414;28;19971;-59
2023/03/12 10:23:38;;;;;;;;;;;;;;;3.26;100.00;161420.41;5051390;28;19919;-59
2023/03/12 10:26:11;;;;;;;;;;;;;;;3.39;100.00;161455.34;5049497;28;19948;-59
2023/03/12 10:28:41;;;;;;;;;;;;;;;3.47;100.00;161476.84;5051579;28;20402;-59
2023/03/12 10:31:13;;;;;;;;;;;;;;;3.47;100.00;161475.50;5048330;28;20295;-59
2023/03/12 10:33:41;;;;;;;;;;;;;;;3.57;100.00;161502.41;5050959;28;19971;-59
2023/03/12 10:36:17;;;;;;;;;;;;;;;3.66;100.00;161525.22;5050390;28;19955;-59
2023/03/12 10:38:43;;;;;;;;;;;;;;;3.70;100.00;161534.63;5051031;28;19912;-59
2023/03/12 10:41:16;;;;;;;;;;;;;;;3.73;100.00;161542.66;5047150;28;19938;-59
2023/03/12 10:43:42;;;;;;;;;;;;;;;3.81;100.00;161564.16;5050540;28;19993;-59
2023/03/12 10:46:13;;;;;;;;;;;;;;;3.89;100.00;161584.34;5049506;28;20012;-60
2023/03/12 10:48:38;;;;;;;;;;;;;;;3.92;100.00;161592.38;5049525;28;19912;-60
2023/03/12 10:51:05;;;;;;;;;;;;;;;4.00;100.00;161613.88;5048789;28;20290;-59
2023/03/12 10:53:32;;;;;;;;;;;;;;;4.06;100.00;161630.00;5050549;28;19978;-59
2023/03/12 10:56:06;;;;;;;;;;;;;;;4.13;100.00;161648.81;5044029;28;20574;-59
2023/03/12 10:58:41;;;;;;;;;;;;;;;4.19;100.00;161662.31;5049780;28;20387;-59
2023/03/12 11:01:24;;;;;;;;;;;;;;;4.26;100.00;161681.13;5045991;28;19955;-59
2023/03/12 11:03:52;;;;;;;;;;;;;;;4.25;100.00;161678.41;5050048;28;19913;-59
2023/03/12 11:06:26;;;;;;;;;;;;;;;4.33;100.00;161698.56;5049029;28;19925;-59
2023/03/12 11:09:20;;;;;;;;;;;;;;;4.38;100.00;161713.34;5047739;28;19959;-59
2023/03/12 11:11:46;;;;;;;;;;;;;;;4.45;100.00;161732.19;5040065;28;19921;-59
2023/03/12 11:14:20;;;;;;;;;;;;;;;4.49;100.00;161740.25;5050255;28;19952;-59
2023/03/12 11:16:46;;;;;;;;;;;;;;;4.55;100.00;161756.38;5040328;28;19927;-59
2023/03/12 11:19:12;;;;;;;;;;;;;;;4.66;100.00;161785.94;5067296;28;20298;-59
2023/03/12 11:21:39;;;;;;;;;;;;;;;4.74;100.00;161807.47;5068941;28;19963;-59
2023/03/12 11:24:11;;;;;;;;;;;;;;;4.83;100.00;161828.97;5064801;28;19919;-59
2023/03/12 11:26:42;;;;;;;;;;;;;;;4.87;100.00;161839.78;5051235;28;20291;-59
2023/03/12 11:29:24;;;;;;;;;;;;;;;4.95;100.00;161861.28;5045906;28;19919;-59
2023/03/12 11:31:56;;;;;;;;;;;;;;;5.04;100.00;161885.47;5046535;28;19928;-59
2023/03/12 11:34:24;;;;;;;;;;;;;;;5.15;100.00;161913.69;5058878;28;20003;-59
2023/03/12 11:37:09;;;;;;;;;;;;;;;5.22;100.00;161931.19;5048315;28;20389;-59
2023/03/12 11:39:37;;;;;;;;;;;;;;;5.28;100.00;161947.34;5045886;28;19924;-59
2023/03/12 11:42:12;;;;;;;;;;;;;;;5.39;100.00;161976.97;5071645;28;20003;-59
2023/03/12 11:44:43;;;;;;;;;;;;;;;5.44;100.00;161987.69;5068561;28;19967;-59
2023/03/12 11:47:15;;;;;;;;;;;;;;;5.46;100.00;161994.41;5052814;28;20347;-59
2023/03/12 11:49:50;;;;;;;;;;;;;;;5.56;100.00;162019.97;5065234;28;19915;-58
2023/03/12 11:52:28;;;;;;;;;;;;;;;5.76;100.00;162071.13;5073706;28;19920;-60
2023/03/12 11:55:16;;;;;;;;;;;;;;;5.90;100.00;162108.81;5067191;28;20354;-60
2023/03/12 11:58:00;;;;;;;;;;;;;;;5.99;100.00;162133.09;5084384;28;19913;-59
2023/03/12 12:00:31;;;;;;;;;;;;;;;6.03;100.00;162142.50;5068428;28;20382;-59
2023/03/12 12:03:17;;;;;;;;;;;;;;;6.18;100.00;162181.50;5070417;28;19942;-59
2023/03/12 12:05:48;;;;;;;;;;;;;;;6.32;100.00;162219.19;5074580;28;19916;-59
2023/03/12 12:08:27;;;;;;;;;;;;;;;6.50;100.00;162264.97;5075748;28;20317;-59
2023/03/12 12:11:02;;;;;;;;;;;;;;;6.65;100.00;162305.38;5067173;28;19920;-59
2023/03/12 12:13:33;;;;;;;;;;;;;;;6.81;100.00;162345.78;5076997;28;20375;-59
2023/03/12 12:16:08;;;;;;;;;;;;;;;6.87;100.00;162361.91;5084637;28;19916;-59
2023/03/12 12:18:48;;;;;;;;;;;;;;;7.14;100.00;162431.94;5073506;28;19991;-59
2023/03/12 12:21:13;;;;;;;;;;;;;;;7.34;100.00;162483.09;5085033;28;19916;-59
2023/03/12 12:24:03;;;;;;;;;;;;;;;7.42;100.00;162506.03;5083050;28;20025;-59
2023/03/12 12:26:37;;;;;;;;;;;;;;;7.56;100.00;162542.38;5076748;28;19915;-59
2023/03/12 12:29:25;;;;;;;;;;;;;;;7.63;100.00;162561.22;5083954;28;20328;-59
2023/03/12 12:31:55;;;;;;;;;;;;;;;7.50;100.00;162526.19;5067375;28;19960;-59
2023/03/12 12:34:23;;;;;;;;;;;;;;;7.54;100.00;162537.00;5072548;28;19920;-59